Ship Status Report: callsign 8TAP

sailwx.info

Track history (hours):
 
Tides and Currents Weather Stations Pressure Air Temp Water Temp Dewpoint Dewpoint Depression Visibility Wind Speed Wind Dir Waves Ship Positions

Callsign 8TAP (name unknown)

Last reported at 2018-Feb-24 09:09 UTC. Time now 2018-Feb-24 13:45 UTC.
Position N 17°42' E 083°18'.

Air temperature 37.5 ° C

Date/timePositionNaut miles runAvg speedWind from/ knotsBaromVisibWave heightAir tempDewpointWater temp
2018-Feb-24 09:09N 17°42' E 083°18'0 0.0 37.5
2018-Feb-24 06:09N 17°42' E 083°18'0 0.0 1015.4 35.3
2018-Feb-24 03:09N 17°42' E 083°18'0 0.0 1016.3 30.9
2018-Feb-24 00:09N 17°42' E 083°18'0 0.0
2018-Feb-23 21:09N 17°42' E 083°18'0 0.0 1012.8 21.5
2018-Feb-23 18:09N 17°42' E 083°18'0 0.0 1013.5 22.5
2018-Feb-23 15:09N 17°42' E 083°18'0 0.0 1013.1 24.8
2018-Feb-23 12:09N 17°42' E 083°18'0 0.0 1010.8 28.9
2018-Feb-23 09:09N 17°42' E 083°18'0 0.0 1010.5 35.3
2018-Feb-23 06:09N 17°42' E 083°18'0 0.0 35.5
2018-Feb-23 03:09N 17°42' E 083°18'0 0.0 300 / 21013.9 27.0
2018-Feb-23 00:09N 17°42' E 083°18'0 0.0 230 / 21011.7 21.0
2018-Feb-22 21:09N 17°42' E 083°18'0 0.0 230 1011.2 22.2
2018-Feb-22 18:09N 17°42' E 083°18'0 0.0 160 1012.3 22.8
2018-Feb-22 14:39N 17°42' E 083°18'0 0.0 240 1011.7 25.4
2018-Feb-22 12:09N 17°42' E 083°18'6 1.9 180 / 101009.5 26.7
2018-Feb-22 09:09N 17°42' E 083°24'0 0.0 150 / 81009.0 27.2
2018-Feb-22 06:09N 17°42' E 083°24'0 0.0 140 / 81011.8 26.7
2018-Feb-22 03:09N 17°42' E 083°24'0 0.0 130 1013.3 29.4
2018-Feb-22 00:09N 17°42' E 083°24'0 0.0 290 / 41010.6 23.4
2018-Feb-21 21:09N 17°42' E 083°24'0 0.0 260 / 61010.2 24.4
2018-Feb-21 18:09N 17°42' E 083°24'0 0.0 250 / 61011.7 25.2
2018-Feb-21 15:09N 17°42' E 083°24'0 0.0 240 / 101011.6 25.8
2018-Feb-21 12:09N 17°42' E 083°24'0 0.0 190 / 101009.7 26.0
2018-Feb-21 09:09N 17°42' E 083°24'0 0.0 150 / 81009.3 26.9
2018-Feb-21 06:09N 17°42' E 083°24'0 0.0 120 / 61012.2 26.3
2018-Feb-21 03:09N 17°42' E 083°24'6 2.0 240 / 21013.5 25.9
2018-Feb-21 00:09N 17°48' E 083°24'18 6.1 260 / 21011.5 23.7
2018-Feb-20 21:09N 17°54' E 083°42'26 8.6 270 / 61010.9 24.3
2018-Feb-20 18:09N 18°06' E 084°06'13 4.4 220 / 61012.3 25.7
2018-Feb-20 15:09N 18°18' E 084°12'0 0.0 200 / 61012.5 26.0
2018-Feb-20 12:09N 18°18' E 084°12'0 0.0 150 / 81011.2 26.0
2018-Feb-20 09:09N 18°18' E 084°12'0 0.0 150 / 61011.3 26.3
2018-Feb-20 06:09N 18°18' E 084°12'0 0.0 160 / 61014.0 25.5
2018-Feb-20 03:09N 18°18' E 084°12'0 0.0 270 / 61014.6 23.7
2018-Feb-20 00:09N 18°18' E 084°12'0 0.0 260 / 61012.9 24.2
2018-Feb-19 21:09N 18°18' E 084°12'0 0.0 290 / 61012.4 24.0
2018-Feb-19 18:09N 18°18' E 084°12'0 0.0 200 / 61013.4 25.3
2018-Feb-19 15:09N 18°18' E 084°12'6 1.9 190 / 61013.6 25.5
2018-Feb-19 12:09N 18°18' E 084°18'24 7.9 160 / 101011.7 25.8
2018-Feb-19 09:09N 18°24' E 084°42'6 2.0 170 / 61011.8 26.2
2018-Feb-19 06:09N 18°30' E 084°42'6 2.0 240 / 81014.3 25.6
2018-Feb-19 03:09N 18°24' E 084°42'6 2.0 190 / 61015.1 25.4
2018-Feb-19 00:09N 18°18' E 084°42'0 0.0 220 / 41013.1 24.8
2018-Feb-18 21:09N 18°18' E 084°42'8 2.8 160 / 61012.0 24.8
2018-Feb-18 18:09N 18°12' E 084°36'8 2.8 190 / 41013.1 25.2
2018-Feb-18 15:09N 18°06' E 084°30'29 9.7 180 / 81013.3 25.4
2018-Feb-18 12:09N 18°00' E 084°00'0 0.0 180 / 121010.9 25.8
2018-Feb-18 09:09N 18°00' E 084°00'24 7.9 190 / 81011.1 26.4
2018-Feb-18 06:09N 17°54' E 083°36'17 5.5 140 / 41014.0 24.8
2018-Feb-18 03:09N 17°42' E 083°24'0 0.0 040 / 21014.1 25.9
2018-Feb-18 00:09N 17°42' E 083°24'0 0.0 300 / 61011.6 22.1
2018-Feb-17 21:09N 17°42' E 083°24'0 0.0 300 / 61011.0 23.3
2018-Feb-17 18:09N 17°42' E 083°24'0 0.0 250 / 81012.2 24.5
2018-Feb-17 15:09N 17°42' E 083°24'0 0.0 220 / 101012.3 25.3
2018-Feb-17 12:09N 17°42' E 083°24'0 0.0 200 / 101010.9 25.5
2018-Feb-17 09:09N 17°42' E 083°24'0 0.0 180 / 101010.9 25.6
2018-Feb-17 06:09N 17°42' E 083°24'0 0.0 170 / 61014.1 25.4
2018-Feb-17 03:09N 17°42' E 083°24'0 0.0 340 1015.4 25.3
2018-Feb-17 00:09N 17°42' E 083°24'0 0.0 300 / 61013.4 22.4
2018-Feb-16 21:09N 17°42' E 083°24'0 0.0 300 / 61013.6 23.0
2018-Feb-16 18:09N 17°42' E 083°24'0 0.0 310 / 61015.2 23.6
2018-Feb-16 15:09N 17°42' E 083°24'0 0.0 210 / 61015.2 25.1
2018-Feb-16 12:09N 17°42' E 083°24'21 7.1 170 / 81014.4 25.4
2018-Feb-16 09:09N 17°24' E 083°36'8 2.8 090 / 101014.8 25.4
2018-Feb-16 06:09N 17°18' E 083°42'6 1.9 040 / 81018.0 25.4
2018-Feb-16 03:09N 17°18' E 083°48'6 2.0 050 / 81018.8 25.4
2018-Feb-16 00:09N 17°24' E 083°48'0 0.0 030 / 61017.2 24.7
2018-Feb-15 21:09N 17°24' E 083°48'6 1.9 040 / 41016.8 24.9
2018-Feb-15 18:09N 17°24' E 083°54'0 0.0 060 / 41018.5 25.4
2018-Feb-15 15:09N 17°24' E 083°54'17 5.5 080 / 61018.0 25.7
2018-Feb-15 12:09N 17°36' E 083°42'17 5.5 110 / 81016.1 25.6
2018-Feb-15 09:09N 17°48' E 083°30'6 2.0 140 / 121016.2 26.0
2018-Feb-15 06:09N 17°42' E 083°30'17 5.5 100 / 81019.2 25.4
2018-Feb-15 03:09N 17°30' E 083°42'17 5.5 050 / 121019.6 24.8
2018-Feb-15 00:09N 17°42' E 083°30'6 1.9 350 / 81017.9 24.0
2018-Feb-14 21:09N 17°42' E 083°24'0 0.0 320 / 81017.9 22.3
2018-Feb-14 18:09N 17°42' E 083°24'0 0.0 310 / 81018.9 22.9
2018-Feb-14 15:09N 17°42' E 083°24'0 0.0 080 / 21018.9 25.1
2018-Feb-14 12:09N 17°42' E 083°24'0 0.0 110 / 141016.6 25.4
2018-Feb-14 09:09N 17°42' E 083°24'   090 / 161016.8 26.2
Track history (hours):
 
Tides and Currents Weather Stations Pressure Air Temp Water Temp Dewpoint Dewpoint Depression Visibility Wind Speed Wind Dir Waves Ship Positions

Callsign 8TAP (name unknown)

Last reported at 2018-Feb-24 09:09 UTC. Time now 2018-Feb-24 13:45 UTC.
Position N 17°42' E 083°18'.

Air temperature 37.5 ° C

Date/timePositionNaut miles runAvg speedWind from/ knotsBaromVisibWave heightAir tempDewpointWater temp
2018-Feb-24 09:09N 17°42' E 083°18'0 0.0 37.5
2018-Feb-24 06:09N 17°42' E 083°18'0 0.0 1015.4 35.3
2018-Feb-24 03:09N 17°42' E 083°18'0 0.0 1016.3 30.9
2018-Feb-24 00:09N 17°42' E 083°18'0 0.0
2018-Feb-23 21:09N 17°42' E 083°18'0 0.0 1012.8 21.5
2018-Feb-23 18:09N 17°42' E 083°18'0 0.0 1013.5 22.5
2018-Feb-23 15:09N 17°42' E 083°18'0 0.0 1013.1 24.8
2018-Feb-23 12:09N 17°42' E 083°18'0 0.0 1010.8 28.9
2018-Feb-23 09:09N 17°42' E 083°18'0 0.0 1010.5 35.3
2018-Feb-23 06:09N 17°42' E 083°18'0 0.0 35.5
2018-Feb-23 03:09N 17°42' E 083°18'0 0.0 300 / 21013.9 27.0
2018-Feb-23 00:09N 17°42' E 083°18'0 0.0 230 / 21011.7 21.0
2018-Feb-22 21:09N 17°42' E 083°18'0 0.0 230 1011.2 22.2
2018-Feb-22 18:09N 17°42' E 083°18'0 0.0 160 1012.3 22.8
2018-Feb-22 14:39N 17°42' E 083°18'0 0.0 240 1011.7 25.4
2018-Feb-22 12:09N 17°42' E 083°18'6 1.9 180 / 101009.5 26.7
2018-Feb-22 09:09N 17°42' E 083°24'0 0.0 150 / 81009.0 27.2
2018-Feb-22 06:09N 17°42' E 083°24'0 0.0 140 / 81011.8 26.7
2018-Feb-22 03:09N 17°42' E 083°24'0 0.0 130 1013.3 29.4
2018-Feb-22 00:09N 17°42' E 083°24'0 0.0 290 / 41010.6 23.4
2018-Feb-21 21:09N 17°42' E 083°24'0 0.0 260 / 61010.2 24.4
2018-Feb-21 18:09N 17°42' E 083°24'0 0.0 250 / 61011.7 25.2
2018-Feb-21 15:09N 17°42' E 083°24'0 0.0 240 / 101011.6 25.8
2018-Feb-21 12:09N 17°42' E 083°24'0 0.0 190 / 101009.7 26.0
2018-Feb-21 09:09N 17°42' E 083°24'0 0.0 150 / 81009.3 26.9
2018-Feb-21 06:09N 17°42' E 083°24'0 0.0 120 / 61012.2 26.3
2018-Feb-21 03:09N 17°42' E 083°24'6 2.0 240 / 21013.5 25.9
2018-Feb-21 00:09N 17°48' E 083°24'18 6.1 260 / 21011.5 23.7
2018-Feb-20 21:09N 17°54' E 083°42'26 8.6 270 / 61010.9 24.3
2018-Feb-20 18:09N 18°06' E 084°06'13 4.4 220 / 61012.3 25.7
2018-Feb-20 15:09N 18°18' E 084°12'0 0.0 200 / 61012.5 26.0
2018-Feb-20 12:09N 18°18' E 084°12'0 0.0 150 / 81011.2 26.0
2018-Feb-20 09:09N 18°18' E 084°12'0 0.0 150 / 61011.3 26.3
2018-Feb-20 06:09N 18°18' E 084°12'0 0.0 160 / 61014.0 25.5
2018-Feb-20 03:09N 18°18' E 084°12'0 0.0 270 / 61014.6 23.7
2018-Feb-20 00:09N 18°18' E 084°12'0 0.0 260 / 61012.9 24.2
2018-Feb-19 21:09N 18°18' E 084°12'0 0.0 290 / 61012.4 24.0
2018-Feb-19 18:09N 18°18' E 084°12'0 0.0 200 / 61013.4 25.3
2018-Feb-19 15:09N 18°18' E 084°12'6 1.9 190 / 61013.6 25.5
2018-Feb-19 12:09N 18°18' E 084°18'24 7.9 160 / 101011.7 25.8
2018-Feb-19 09:09N 18°24' E 084°42'6 2.0 170 / 61011.8 26.2
2018-Feb-19 06:09N 18°30' E 084°42'6 2.0 240 / 81014.3 25.6
2018-Feb-19 03:09N 18°24' E 084°42'6 2.0 190 / 61015.1 25.4
2018-Feb-19 00:09N 18°18' E 084°42'0 0.0 220 / 41013.1 24.8
2018-Feb-18 21:09N 18°18' E 084°42'8 2.8 160 / 61012.0 24.8
2018-Feb-18 18:09N 18°12' E 084°36'8 2.8 190 / 41013.1 25.2
2018-Feb-18 15:09N 18°06' E 084°30'29 9.7 180 / 81013.3 25.4
2018-Feb-18 12:09N 18°00' E 084°00'0 0.0 180 / 121010.9 25.8
2018-Feb-18 09:09N 18°00' E 084°00'24 7.9 190 / 81011.1 26.4
2018-Feb-18 06:09N 17°54' E 083°36'17 5.5 140 / 41014.0 24.8
2018-Feb-18 03:09N 17°42' E 083°24'0 0.0 040 / 21014.1 25.9
2018-Feb-18 00:09N 17°42' E 083°24'0 0.0 300 / 61011.6 22.1
2018-Feb-17 21:09N 17°42' E 083°24'0 0.0 300 / 61011.0 23.3
2018-Feb-17 18:09N 17°42' E 083°24'0 0.0 250 / 81012.2 24.5
2018-Feb-17 15:09N 17°42' E 083°24'0 0.0 220 / 101012.3 25.3
2018-Feb-17 12:09N 17°42' E 083°24'0 0.0 200 / 101010.9 25.5
2018-Feb-17 09:09N 17°42' E 083°24'0 0.0 180 / 101010.9 25.6
2018-Feb-17 06:09N 17°42' E 083°24'0 0.0 170 / 61014.1 25.4
2018-Feb-17 03:09N 17°42' E 083°24'0 0.0 340 1015.4 25.3
2018-Feb-17 00:09N 17°42' E 083°24'0 0.0 300 / 61013.4 22.4
2018-Feb-16 21:09N 17°42' E 083°24'0 0.0 300 / 61013.6 23.0
2018-Feb-16 18:09N 17°42' E 083°24'0 0.0 310 / 61015.2 23.6
2018-Feb-16 15:09N 17°42' E 083°24'0 0.0 210 / 61015.2 25.1
2018-Feb-16 12:09N 17°42' E 083°24'21 7.1 170 / 81014.4 25.4
2018-Feb-16 09:09N 17°24' E 083°36'8 2.8 090 / 101014.8 25.4
2018-Feb-16 06:09N 17°18' E 083°42'6 1.9 040 / 81018.0 25.4
2018-Feb-16 03:09N 17°18' E 083°48'6 2.0 050 / 81018.8 25.4
2018-Feb-16 00:09N 17°24' E 083°48'0 0.0 030 / 61017.2 24.7
2018-Feb-15 21:09N 17°24' E 083°48'6 1.9 040 / 41016.8 24.9
2018-Feb-15 18:09N 17°24' E 083°54'0 0.0 060 / 41018.5 25.4
2018-Feb-15 15:09N 17°24' E 083°54'17 5.5 080 / 61018.0 25.7
2018-Feb-15 12:09N 17°36' E 083°42'17 5.5 110 / 81016.1 25.6
2018-Feb-15 09:09N 17°48' E 083°30'6 2.0 140 / 121016.2 26.0
2018-Feb-15 06:09N 17°42' E 083°30'17 5.5 100 / 81019.2 25.4
2018-Feb-15 03:09N 17°30' E 083°42'17 5.5 050 / 121019.6 24.8
2018-Feb-15 00:09N 17°42' E 083°30'6 1.9 350 / 81017.9 24.0
2018-Feb-14 21:09N 17°42' E 083°24'0 0.0 320 / 81017.9 22.3
2018-Feb-14 18:09N 17°42' E 083°24'0 0.0 310 / 81018.9 22.9
2018-Feb-14 15:09N 17°42' E 083°24'0 0.0 080 / 21018.9 25.1
2018-Feb-14 12:09N 17°42' E 083°24'0 0.0 110 / 141016.6 25.4
2018-Feb-14 09:09N 17°42' E 083°24'   090 / 161016.8 26.2

Dump ship's entire track history